Time;durP1;ratioP1;P1;durP2;ratioP2;P2;SDS_P1;SDS_P2;PMS_P1;PMS_P2;Temp;Humidity;BMP_temperature;BMP_pressure;BME280_temperature;BME280_humidity;BME280_pressure;Samples;Min_cycle;Max_cycle;Signal;HPM_P1;HPM_P2
2022/06/12 00:01:22;;;;;;;4.57;1.85;;;20.90;53.50;;;;;;5007130;28;20038;-48
2022/06/12 00:03:49;;;;;;;4.88;2.13;;;20.80;53.80;;;;;;5018311;28;20276;-48
2022/06/12 00:06:18;;;;;;;5.72;2.45;;;20.60;53.80;;;;;;5013705;28;20517;-48
2022/06/12 00:08:46;;;;;;;1.98;1.67;;;20.60;54.00;;;;;;5018360;28;20069;-51
2022/06/12 00:11:21;;;;;;;5.63;1.97;;;20.50;53.90;;;;;;5027356;23;20041;-50
2022/06/12 00:13:54;;;;;;;5.65;2.10;;;20.40;53.90;;;;;;5068507;28;20040;-48
2022/06/12 00:16:22;;;;;;;3.17;2.03;;;20.30;54.00;;;;;;5052377;28;20045;-50
2022/06/12 00:18:50;;;;;;;4.57;1.90;;;20.20;54.00;;;;;;5069645;28;20064;-51
2022/06/12 00:21:17;;;;;;;2.30;1.65;;;20.10;54.20;;;;;;5044378;28;20037;-49
2022/06/12 00:23:46;;;;;;;7.45;1.98;;;20.00;54.10;;;;;;5046716;28;20056;-52
2022/06/12 00:26:16;;;;;;;4.97;1.95;;;19.90;54.30;;;;;;5032880;28;20037;-48
2022/06/12 00:28:43;;;;;;;3.22;2.30;;;19.80;54.40;;;;;;5048033;28;20045;-51
2022/06/12 00:31:10;;;;;;;4.90;1.95;;;19.80;54.50;;;;;;5039137;28;20045;-50
2022/06/12 00:33:37;;;;;;;2.60;1.40;;;19.70;54.30;;;;;;5048028;28;20108;-52
2022/06/12 00:36:04;;;;;;;7.80;1.90;;;19.60;54.30;;;;;;5037567;28;20049;-49
2022/06/12 00:38:31;;;;;;;4.97;1.75;;;19.50;54.40;;;;;;5047668;28;20495;-48
2022/06/12 00:40:58;;;;;;;4.97;1.75;;;19.40;54.40;;;;;;5035016;28;20098;-47
2022/06/12 00:43:29;;;;;;;5.90;1.75;;;19.40;54.60;;;;;;5045038;28;20037;-51
2022/06/12 00:46:01;;;;;;;3.25;1.88;;;19.30;54.60;;;;;;5038838;28;20513;-49
2022/06/12 00:48:32;;;;;;;8.38;2.60;;;19.20;54.70;;;;;;5048201;28;20037;-49
2022/06/12 00:51:09;;;;;;;5.35;1.80;;;19.20;54.80;;;;;;5039815;28;20091;-49
2022/06/12 00:53:42;;;;;;;6.00;2.05;;;19.10;55.00;;;;;;5041735;28;20110;-51
2022/06/12 00:56:16;;;;;;;5.00;2.08;;;19.00;55.00;;;;;;5031139;28;20087;-46
2022/06/12 00:58:48;;;;;;;3.88;1.95;;;19.00;55.30;;;;;;5046694;28;20037;-48
2022/06/12 01:01:21;;;;;;;5.43;2.10;;;18.90;55.00;;;;;;5037551;28;20041;-48
2022/06/12 01:06:34;;;;;;;2.55;1.67;;;18.80;55.00;;;;;;5037290;28;20523;-49
2022/06/12 01:09:10;;;;;;;8.82;2.05;;;18.70;54.90;;;;;;5048331;28;20177;-49
2022/06/12 01:11:40;;;;;;;7.97;1.95;;;18.70;55.30;;;;;;5028280;28;20095;-52
2022/06/12 01:14:09;;;;;;;5.70;2.00;;;18.60;55.30;;;;;;5048803;28;20052;-48
2022/06/12 01:16:45;;;;;;;5.82;2.33;;;18.50;55.30;;;;;;5034897;28;20041;-49
2022/06/12 01:19:26;;;;;;;3.15;1.65;;;18.50;55.20;;;;;;5048568;28;20043;-51
2022/06/12 01:22:19;;;;;;;2.58;1.55;;;18.40;55.60;;;;;;5037587;28;20068;-50
2022/06/12 01:25:05;;;;;;;7.40;2.05;;;18.40;55.70;;;;;;5034201;28;20067;-49
2022/06/12 01:28:02;;;;;;;2.58;1.90;;;18.30;55.70;;;;;;5038287;28;20615;-51
2022/06/12 01:30:47;;;;;;;3.28;1.48;;;18.30;56.40;;;;;;5034505;28;20045;-53
2022/06/12 01:34:06;;;;;;;7.05;1.92;;;18.20;55.70;;;;;;5043092;28;20102;-47
2022/06/12 01:36:55;;;;;;;4.28;1.75;;;18.20;55.90;;;;;;4980079;28;20424;-52
2022/06/12 01:39:52;;;;;;;2.20;1.33;;;18.10;55.60;;;;;;5046284;28;20045;-47
2022/06/12 01:42:32;;;;;;;3.13;1.27;;;18.00;55.90;;;;;;5030332;28;20050;-51
2022/06/12 01:45:18;;;;;;;1.60;1.40;;;17.90;55.70;;;;;;5045705;28;20048;-48
2022/06/12 01:47:59;;;;;;;5.45;1.30;;;17.90;55.80;;;;;;5034792;28;20568;-51
2022/06/12 01:50:43;;;;;;;3.30;1.70;;;17.80;55.60;;;;;;5037977;28;20426;-54
2022/06/12 01:53:36;;;;;;;6.10;1.60;;;17.80;55.80;;;;;;5043822;28;20585;-50
2022/06/12 01:56:19;;;;;;;5.20;2.30;;;17.70;55.90;;;;;;5032370;28;20032;-53
2022/06/12 01:58:53;;;;;;;4.55;1.40;;;17.60;56.20;;;;;;5045448;28;20045;-51
2022/06/12 02:01:40;;;;;;;3.22;1.77;;;17.70;56.10;;;;;;5030645;28;20033;-49
2022/06/12 02:04:18;;;;;;;3.90;2.30;;;17.60;56.60;;;;;;5039565;28;20496;-49
2022/06/12 02:06:49;;;;;;;3.92;1.58;;;17.60;56.50;;;;;;5032841;28;20041;-53
2022/06/12 02:09:23;;;;;;;4.68;1.50;;;17.50;56.20;;;;;;5047605;28;20095;-51
2022/06/12 02:14:57;;;;;;;4.00;1.58;;;17.40;56.40;;;;;;5046140;28;20053;-53
2022/06/12 02:17:35;;;;;;;5.93;1.83;;;17.40;56.20;;;;;;5034015;28;20049;-51
2022/06/12 02:20:06;;;;;;;7.80;2.20;;;17.40;56.40;;;;;;5047694;28;20099;-50
2022/06/12 02:22:36;;;;;;;6.53;1.73;;;17.30;56.30;;;;;;5034892;28;20045;-47
2022/06/12 02:25:08;;;;;;;3.28;1.58;;;17.30;56.10;;;;;;5041658;28;20504;-46
2022/06/12 02:27:50;;;;;;;7.10;2.00;;;17.20;56.40;;;;;;5035122;28;20049;-52
2022/06/12 02:30:24;;;;;;;8.40;1.73;;;17.20;56.80;;;;;;5047438;28;20048;-52
2022/06/12 02:33:09;;;;;;;4.57;1.55;;;17.20;56.30;;;;;;5039122;28;20048;-52
2022/06/12 02:35:43;;;;;;;4.68;1.83;;;17.10;56.60;;;;;;5038049;28;20493;-52
2022/06/12 02:38:18;;;;;;;9.77;1.75;;;17.10;56.20;;;;;;5042558;28;20034;-50
2022/06/12 02:40:51;;;;;;;4.18;1.27;;;17.10;56.20;;;;;;5032618;28;20451;-52
2022/06/12 02:43:19;;;;;;;;;;;17.00;56.20;;;;;;5045632;28;20048;-51
2022/06/12 02:46:01;;;;;;;3.25;1.33;;;17.20;55.90;;;;;;5037738;28;19929;-50
2022/06/12 02:48:29;;;;;;;7.90;1.85;;;17.00;56.00;;;;;;5043029;28;20442;-52
2022/06/12 02:51:25;;;;;;;5.00;1.58;;;16.90;55.90;;;;;;5038628;28;20455;-51
2022/06/12 02:54:21;;;;;;;6.40;1.90;;;16.90;56.30;;;;;;5031642;28;20064;-49
2022/06/12 02:57:05;;;;;;;4.60;1.50;;;16.80;56.70;;;;;;5029285;28;20037;-51
2022/06/12 02:59:34;;;;;;;4.40;1.50;;;16.80;56.50;;;;;;5049830;28;20385;-49
2022/06/12 03:02:16;;;;;;;6.25;1.52;;;16.70;56.70;;;;;;5039026;28;20040;-52
2022/06/12 03:04:53;;;;;;;5.55;1.23;;;16.70;56.80;;;;;;5047407;28;20061;-50
2022/06/12 03:07:20;;;;;;;5.43;1.92;;;16.60;56.60;;;;;;5042644;28;20045;-51
2022/06/12 03:09:47;;;;;;;2.78;1.42;;;16.60;56.50;;;;;;5047621;28;20069;-51
2022/06/12 03:12:14;;;;;;;4.70;1.88;;;16.60;56.70;;;;;;5039768;28;20044;-51
2022/06/12 03:14:42;;;;;;;2.65;1.20;;;16.50;56.70;;;;;;5049373;28;20563;-51
2022/06/12 03:17:09;;;;;;;3.88;1.33;;;16.50;57.40;;;;;;5038408;28;20129;-51
2022/06/12 03:19:49;;;;;;;4.00;1.60;;;16.40;56.80;;;;;;5052022;28;20037;-50
2022/06/12 03:22:22;;;;;;;3.63;1.63;;;16.40;57.30;;;;;;5040154;28;20052;-52
2022/06/12 03:24:54;;;;;;;4.53;1.83;;;16.40;57.10;;;;;;5046551;28;20099;-52
2022/06/12 03:27:30;;;;;;;3.90;1.90;;;16.40;56.80;;;;;;5039456;28;20045;-46
2022/06/12 03:30:19;;;;;;;6.32;1.90;;;16.40;57.10;;;;;;5051457;28;20405;-49
2022/06/12 03:32:57;;;;;;;4.35;1.50;;;16.30;57.50;;;;;;5037638;28;20057;-51
2022/06/12 03:35:50;;;;;;;5.80;2.10;;;16.30;57.40;;;;;;5048670;28;20573;-52
2022/06/12 03:38:26;;;;;;;4.38;1.80;;;16.30;57.00;;;;;;5009423;28;20053;-50
2022/06/12 03:41:20;;;;;;;5.97;1.75;;;16.30;57.70;;;;;;5034679;28;20635;-50
2022/06/12 03:44:14;;;;;;;5.88;2.00;;;16.30;58.10;;;;;;5044044;28;20124;-49
2022/06/12 03:46:55;;;;;;;5.00;2.05;;;16.20;57.90;;;;;;5039952;28;20475;-49
2022/06/12 03:49:40;;;;;;;6.28;1.80;;;16.20;57.70;;;;;;5049383;28;20061;-46
2022/06/12 03:52:15;;;;;;;7.35;1.63;;;16.20;57.50;;;;;;5035503;28;20107;-47
2022/06/12 03:55:06;;;;;;;6.72;2.38;;;16.20;58.10;;;;;;5046449;28;20126;-52
2022/06/12 03:57:52;;;;;;;3.20;1.60;;;16.20;58.40;;;;;;5038657;28;20037;-51
2022/06/12 04:00:39;;;;;;;2.85;1.73;;;16.20;58.10;;;;;;5048443;28;20051;-52
2022/06/12 04:03:17;;;;;;;9.52;2.20;;;16.20;58.30;;;;;;5047174;28;20040;-52
2022/06/12 04:05:49;;;;;;;5.78;2.10;;;16.20;58.30;;;;;;5040909;28;20072;-52
2022/06/12 04:08:42;;;;;;;2.53;1.30;;;16.20;58.50;;;;;;5045749;28;20052;-53
2022/06/12 04:11:13;;;;;;;4.35;1.85;;;16.20;58.80;;;;;;5032907;28;20044;-52
2022/06/12 04:13:44;;;;;;;6.30;1.65;;;16.20;58.40;;;;;;5049438;28;20053;-50
2022/06/12 04:16:39;;;;;;;2.75;1.80;;;16.20;58.50;;;;;;5038252;28;21046;-49
2022/06/12 04:19:11;;;;;;;3.20;1.55;;;16.20;59.40;;;;;;5046443;28;20170;-51
2022/06/12 04:21:44;;;;;;;;;;;16.20;58.70;;;;;;5034716;28;20041;-50
2022/06/12 04:24:29;;;;;;;4.90;1.88;;;16.30;58.50;;;;;;5045444;28;20455;-51
2022/06/12 04:27:06;;;;;;;5.93;2.67;;;16.30;59.10;;;;;;5038085;28;20065;-52
2022/06/12 04:29:38;;;;;;;7.60;2.70;;;16.30;59.60;;;;;;5046057;28;20577;-52
2022/06/12 04:32:07;;;;;;;6.10;3.05;;;16.30;59.70;;;;;;5036843;28;20052;-51
2022/06/12 04:34:38;;;;;;;5.70;3.22;;;16.40;59.90;;;;;;5047607;28;20033;-53
2022/06/12 04:37:26;;;;;;;6.68;2.95;;;16.40;60.00;;;;;;5037910;28;20041;-51
2022/06/12 04:39:55;;;;;;;7.78;2.70;;;16.40;61.50;;;;;;5046423;28;20045;-53
2022/06/12 04:42:24;;;;;;;5.10;3.03;;;16.40;60.40;;;;;;5036531;28;20118;-47
2022/06/12 04:44:52;;;;;;;7.32;3.40;;;16.60;61.10;;;;;;5045949;28;20571;-52
2022/06/12 04:47:23;;;;;;;8.10;3.65;;;16.60;61.50;;;;;;5034452;28;20048;-51
2022/06/12 04:49:52;;;;;;;7.68;3.42;;;16.60;62.10;;;;;;5047549;28;20049;-51
2022/06/12 04:52:21;;;;;;;6.10;3.58;;;16.70;62.20;;;;;;5031295;28;20064;-49
2022/06/12 04:54:48;;;;;;;7.10;3.60;;;16.80;62.30;;;;;;5044897;28;20045;-50
2022/06/12 04:57:20;;;;;;;6.85;4.30;;;16.90;62.30;;;;;;5035273;28;20681;-50
2022/06/12 04:59:48;;;;;;;6.80;3.95;;;17.00;62.40;;;;;;5047819;28;20037;-50
2022/06/12 05:02:15;;;;;;;6.18;3.47;;;17.00;62.30;;;;;;5038103;28;20037;-52
2022/06/12 05:04:42;;;;;;;7.63;3.22;;;17.10;62.20;;;;;;5047442;28;20520;-47
2022/06/12 05:07:12;;;;;;;8.68;3.65;;;17.20;62.20;;;;;;5037106;28;20041;-52
2022/06/12 05:09:39;;;;;;;6.95;3.83;;;17.30;62.20;;;;;;5047481;28;20069;-51
2022/06/12 05:12:09;;;;;;;7.65;3.58;;;17.30;61.80;;;;;;5037053;28;20049;-51
2022/06/12 05:14:36;;;;;;;4.95;3.38;;;17.40;61.70;;;;;;5044046;28;20036;-50
2022/06/12 05:17:07;;;;;;;7.05;3.47;;;17.50;61.60;;;;;;5036142;28;20099;-51
2022/06/12 05:19:36;;;;;;;5.10;3.60;;;17.60;61.60;;;;;;5047867;28;20044;-52
2022/06/12 05:22:04;;;;;;;5.43;3.53;;;17.60;61.60;;;;;;5034819;28;20509;-50
2022/06/12 05:24:32;;;;;;;6.72;3.22;;;17.70;61.30;;;;;;5044743;28;20049;-50
2022/06/12 05:26:59;;;;;;;5.53;3.13;;;17.70;61.20;;;;;;5035383;28;20504;-51
2022/06/12 05:29:35;;;;;;;6.03;4.15;;;17.80;61.20;;;;;;5046954;28;20559;-51
2022/06/12 05:32:02;;;;;;;7.28;3.20;;;17.80;62.20;;;;;;5039733;28;20095;-46
2022/06/12 05:34:30;;;;;;;6.53;2.92;;;17.90;60.60;;;;;;5048461;28;20508;-52
2022/06/12 05:36:58;;;;;;;7.05;3.08;;;18.00;60.30;;;;;;5025204;28;20067;-51
2022/06/12 05:39:25;;;;;;;8.45;2.70;;;18.00;60.00;;;;;;5036555;28;20570;-50
2022/06/12 05:41:53;;;;;;;7.13;3.40;;;18.00;59.90;;;;;;5039788;28;20403;-47
2022/06/12 05:44:20;;;;;;;6.93;2.72;;;18.10;60.10;;;;;;5047916;28;20052;-50
2022/06/12 05:46:54;;;;;;;7.05;3.25;;;18.10;59.90;;;;;;5039161;28;20131;-50
2022/06/12 05:49:21;;;;;;;6.78;3.05;;;18.20;59.60;;;;;;5033980;28;20041;-48
2022/06/12 05:51:48;;;;;;;5.80;2.83;;;18.20;59.20;;;;;;5033335;28;20052;-47
2022/06/12 05:54:15;;;;;;;6.60;3.53;;;18.20;58.90;;;;;;5045569;28;20690;-50
2022/06/12 05:56:41;;;;;;;5.18;3.00;;;18.20;58.70;;;;;;5027776;28;20091;-49
2022/06/12 05:59:08;;;;;;;10.13;3.00;;;18.20;59.00;;;;;;5045935;28;20045;-48
2022/06/12 06:01:38;;;;;;;4.82;2.30;;;18.30;58.80;;;;;;5035551;28;20114;-50
2022/06/12 06:04:05;;;;;;;5.90;2.65;;;18.30;58.80;;;;;;5043992;28;20045;-52
2022/06/12 06:06:37;;;;;;;5.55;3.28;;;18.40;58.90;;;;;;5030586;28;20064;-52
2022/06/12 06:09:08;;;;;;;5.22;2.58;;;18.40;59.00;;;;;;5042597;28;20068;-49
2022/06/12 06:11:34;;;;;;;4.90;2.45;;;18.40;58.90;;;;;;5029167;28;20098;-53
2022/06/12 06:14:01;;;;;;;5.53;3.00;;;18.50;58.80;;;;;;5036891;28;20532;-51
2022/06/12 06:16:28;;;;;;;7.90;3.13;;;18.50;58.70;;;;;;5033925;28;20575;-52
2022/06/12 06:18:55;;;;;;;6.68;2.90;;;18.50;58.30;;;;;;5038757;28;20037;-49
2022/06/12 06:21:23;;;;;;;5.25;3.33;;;18.60;58.30;;;;;;5188149;22;20033;31
2022/06/12 06:23:50;;;;;;;5.97;2.78;;;18.60;58.30;;;;;;5022961;28;20107;-48
2022/06/12 06:26:17;;;;;;;5.22;2.65;;;18.60;58.00;;;;;;5015076;28;20053;-52
2022/06/12 06:28:44;;;;;;;3.75;2.58;;;18.70;58.00;;;;;;5024901;28;20094;-52
2022/06/12 06:31:11;;;;;;;8.63;2.72;;;18.60;58.00;;;;;;5022157;28;20964;-49
2022/06/12 06:33:38;;;;;;;4.63;2.67;;;18.70;57.90;;;;;;5027316;28;20037;-50
2022/06/12 06:36:12;;;;;;;6.35;2.58;;;18.70;57.90;;;;;;5016227;28;20045;-51
2022/06/12 06:38:39;;;;;;;5.77;2.00;;;18.70;57.50;;;;;;5026865;28;20069;-48
2022/06/12 06:41:06;;;;;;;7.72;2.00;;;18.80;57.10;;;;;;5018659;28;20688;-52
2022/06/12 06:46:18;;;;;;;5.82;2.13;;;18.80;56.70;;;;;;5015516;28;20041;-48
2022/06/12 06:48:45;;;;;;;6.20;2.05;;;18.90;56.50;;;;;;5029544;28;20099;-47
2022/06/12 06:51:12;;;;;;;2.65;1.55;;;18.90;56.20;;;;;;5017205;28;20049;-51
2022/06/12 06:53:39;;;;;;;2.70;1.65;;;19.00;56.10;;;;;;5027089;28;20049;-50
2022/06/12 06:56:06;;;;;;;8.57;1.70;;;19.00;55.60;;;;;;5027323;28;20049;-47
2022/06/12 06:58:33;;;;;;;4.15;1.65;;;19.00;55.70;;;;;;5030873;28;20041;-49
2022/06/12 07:01:00;;;;;;;4.68;1.48;;;19.10;55.20;;;;;;5017594;28;20045;-55
2022/06/12 07:03:27;;;;;;;8.55;1.75;;;19.10;55.20;;;;;;5027978;28;20041;-50
2022/06/12 07:05:54;;;;;;;5.32;1.90;;;19.10;55.20;;;;;;5017028;28;20100;-48
2022/06/12 07:08:23;;;;;;;3.10;1.88;;;19.10;55.40;;;;;;5018325;28;20705;-50
2022/06/12 07:10:51;;;;;;;4.90;1.60;;;19.20;54.90;;;;;;5021178;28;20605;-49
2022/06/12 07:13:18;;;;;;;4.95;1.73;;;19.20;55.30;;;;;;5015769;28;20124;-53
2022/06/12 07:15:46;;;;;;;6.45;1.60;;;19.30;55.50;;;;;;5022944;28;20053;-49
2022/06/12 07:18:14;;;;;;;4.88;1.65;;;19.30;55.50;;;;;;5030030;28;20038;-50
2022/06/12 07:20:46;;;;;;;1.70;1.20;;;19.40;55.20;;;;;;5020841;28;20049;-56
2022/06/12 07:23:17;;;;;;;3.05;1.83;;;19.40;55.50;;;;;;5031477;28;20721;-47
2022/06/12 07:25:49;;;;;;;4.47;1.33;;;19.40;55.40;;;;;;5013315;28;20111;-53
2022/06/12 07:28:18;;;;;;;4.22;1.10;;;19.50;55.30;;;;;;5023685;28;20045;-50
2022/06/12 07:30:46;;;;;;;5.10;1.38;;;19.50;55.20;;;;;;5019425;28;20061;-51
2022/06/12 07:33:13;;;;;;;7.15;1.38;;;19.60;54.70;;;;;;5025994;28;20033;-50
2022/06/12 07:35:42;;;;;;;3.42;1.75;;;19.60;54.60;;;;;;5027255;28;20037;-57
2022/06/12 07:38:16;;;;;;;4.15;1.45;;;19.60;54.20;;;;;;5028714;28;20118;-48
2022/06/12 07:40:50;;;;;;;3.92;1.42;;;19.70;54.60;;;;;;5029209;28;20049;-50
2022/06/12 07:43:17;;;;;;;5.00;1.60;;;19.80;54.40;;;;;;5024317;28;20091;-49
2022/06/12 07:45:44;;;;;;;4.93;1.30;;;19.80;54.20;;;;;;5019740;28;20058;-52
2022/06/12 07:48:11;;;;;;;7.03;1.60;;;19.80;54.30;;;;;;5027477;28;20065;-51
2022/06/12 07:50:41;;;;;;;4.53;1.65;;;19.90;54.60;;;;;;5022178;28;20120;-56
2022/06/12 07:53:12;;;;;;;4.68;1.45;;;19.90;54.30;;;;;;5025653;28;20764;-47
2022/06/12 07:55:39;;;;;;;4.68;1.67;;;20.00;54.50;;;;;;5021126;28;20041;-56
2022/06/12 07:58:06;;;;;;;5.10;1.60;;;20.00;54.20;;;;;;5026293;28;20401;-48
2022/06/12 08:00:36;;;;;;;5.40;1.60;;;20.00;54.10;;;;;;5030970;28;20045;-57
2022/06/12 08:03:04;;;;;;;5.65;1.55;;;20.10;54.40;;;;;;5027439;28;20061;-53
2022/06/12 08:05:32;;;;;;;2.85;1.55;;;20.10;54.90;;;;;;5022899;28;20576;-54
2022/06/12 08:07:59;;;;;;;4.40;1.65;;;20.20;54.30;;;;;;5023744;28;20406;-51
2022/06/12 08:10:26;;;;;;;6.95;1.70;;;20.30;54.10;;;;;;5029718;28;20087;-56
2022/06/12 08:12:55;;;;;;;6.55;1.60;;;20.30;54.10;;;;;;5025331;28;20653;-47
2022/06/12 08:15:26;;;;;;;3.58;1.52;;;20.30;54.90;;;;;;5022248;28;20041;-52
2022/06/12 08:17:56;;;;;;;5.00;1.42;;;20.40;54.50;;;;;;5026094;28;20045;-51
2022/06/12 08:20:25;;;;;;;3.30;1.45;;;20.50;54.70;;;;;;5030165;28;20038;-56
2022/06/12 08:23:05;;;;;;;5.60;1.55;;;20.50;54.60;;;;;;5022071;28;20095;-47
2022/06/12 08:25:36;;;;;;;4.72;1.60;;;20.60;54.70;;;;;;5022625;28;20044;-56
2022/06/12 08:28:03;;;;;;;6.32;1.90;;;20.70;54.40;;;;;;5028462;28;20056;-54
2022/06/12 08:30:30;;;;;;;6.72;2.13;;;20.70;54.40;;;;;;5028538;28;20571;-51
2022/06/12 08:32:57;;;;;;;3.65;1.65;;;20.70;54.60;;;;;;5025204;28;20052;-51
2022/06/12 08:35:30;;;;;;;2.85;1.80;;;20.80;54.90;;;;;;5028715;28;20846;-52
2022/06/12 08:37:58;;;;;;;6.53;2.20;;;20.80;53.80;;;;;;5023662;28;20522;-51
2022/06/12 08:40:32;;;;;;;10.10;2.30;;;20.90;54.50;;;;;;5037472;28;20041;-50
2022/06/12 08:43:08;;;;;;;6.40;2.15;;;20.90;53.90;;;;;;5024375;28;20444;-47
2022/06/12 08:45:47;;;;;;;9.77;2.80;;;21.00;53.90;;;;;;5023824;28;20038;-55
2022/06/12 08:48:30;;;;;;;8.25;1.98;;;21.00;54.20;;;;;;5026300;28;20051;-51
2022/06/12 08:51:07;;;;;;;5.70;2.08;;;21.10;54.30;;;;;;5013882;28;20052;-49
2022/06/12 08:54:10;;;;;;;3.10;1.98;;;21.20;53.90;;;;;;5024587;28;20351;-47
2022/06/12 08:56:46;;;;;;;6.22;2.20;;;21.20;54.80;;;;;;5017847;28;20037;-50
2022/06/12 08:59:26;;;;;;;6.95;2.85;;;21.20;54.10;;;;;;5022314;28;20510;-50
2022/06/12 09:01:53;;;;;;;6.85;2.13;;;21.30;54.10;;;;;;5026350;28;20056;-51
2022/06/12 09:04:23;;;;;;;7.30;1.88;;;21.40;54.10;;;;;;5029207;28;20104;-48
2022/06/12 09:07:28;;;;;;;6.35;2.15;;;21.40;54.50;;;;;;5017112;28;20128;-51
2022/06/12 09:10:04;;;;;;;5.30;1.92;;;21.50;53.90;;;;;;4969200;28;20101;-48
2022/06/12 09:12:51;;;;;;;8.55;2.30;;;21.60;53.90;;;;;;5012302;28;20061;-49
2022/06/12 09:15:41;;;;;;;5.00;1.90;;;21.60;54.40;;;;;;5014148;28;20041;-52
2022/06/12 09:18:46;;;;;;;7.38;2.25;;;21.70;54.20;;;;;;5029935;28;20060;-50
2022/06/12 09:21:22;;;;;;;9.50;2.70;;;21.80;54.10;;;;;;5017915;28;20041;-47
2022/06/12 09:24:00;;;;;;;9.30;2.60;;;21.90;54.40;;;;;;5027398;28;20571;-51
2022/06/12 09:27:02;;;;;;;8.23;3.28;;;21.90;54.90;;;;;;5025797;28;20033;-51
2022/06/12 09:29:35;;;;;;;8.07;2.00;;;22.00;55.00;;;;;;5028438;28;20120;-49
2022/06/12 09:32:29;;;;;;;9.23;2.40;;;22.10;54.40;;;;;;5017581;28;20095;-48
2022/06/12 09:35:24;;;;;;;9.60;2.53;;;22.20;54.80;;;;;;5036323;28;20049;-48
2022/06/12 09:38:21;;;;;;;10.95;2.60;;;22.20;54.50;;;;;;5022038;28;20040;-52
2022/06/12 09:41:20;;;;;;;5.70;2.45;;;22.30;54.20;;;;;;5017105;28;20207;-51
2022/06/12 09:44:01;;;;;;;8.38;2.67;;;22.30;54.20;;;;;;5029395;28;20053;-47
2022/06/12 09:46:43;;;;;;;7.47;2.07;;;22.40;54.50;;;;;;5023581;28;20046;-48
2022/06/12 09:49:26;;;;;;;12.63;2.90;;;22.40;54.20;;;;;;5025951;28;20053;-52
2022/06/12 09:52:12;;;;;;;10.50;2.20;;;22.50;54.50;;;;;;5014366;28;20041;-51
2022/06/12 09:54:52;;;;;;;;;;;22.60;53.70;;;;;;5026697;28;20046;-49
2022/06/12 09:57:45;;;;;;;6.32;2.45;;;22.70;53.70;;;;;;5017155;28;19929;-48
2022/06/12 10:00:26;;;;;;;6.10;2.60;;;22.70;53.80;;;;;;5023475;28;20091;-48
2022/06/12 10:03:14;;;;;;;8.38;2.85;;;22.90;54.10;;;;;;5016328;28;20127;-50
2022/06/12 10:05:43;;;;;;;8.27;2.38;;;23.00;53.10;;;;;;5018787;28;20041;-51
2022/06/12 10:08:16;;;;;;;10.38;2.75;;;23.10;53.40;;;;;;5026407;28;20068;-48
2022/06/12 10:11:01;;;;;;;5.82;2.35;;;23.20;53.80;;;;;;5014870;28;20057;-54
2022/06/12 10:13:35;;;;;;;9.38;3.25;;;23.40;53.60;;;;;;5024537;28;20041;-51
2022/06/12 10:16:11;;;;;;;5.93;2.53;;;23.60;51.70;;;;;;5014080;28;20590;-52
2022/06/12 10:18:50;;;;;;;6.47;2.00;;;23.70;51.60;;;;;;5022788;28;20048;-49
2022/06/12 10:21:21;;;;;;;8.20;2.67;;;23.90;50.50;;;;;;5018677;28;20034;-51
2022/06/12 10:23:49;;;;;;;6.88;2.25;;;23.90;50.60;;;;;;5023311;28;20520;-48
2022/06/12 10:26:27;;;;;;;9.60;3.13;;;24.00;51.00;;;;;;5018863;28;20041;-48
2022/06/12 10:29:08;;;;;;;5.80;1.92;;;24.10;50.10;;;;;;5025547;28;20456;-48
2022/06/12 10:31:49;;;;;;;4.40;2.00;;;24.20;50.70;;;;;;5017929;28;20456;-48
2022/06/12 10:34:23;;;;;;;5.97;2.28;;;24.30;50.60;;;;;;5021239;28;20493;-51
2022/06/12 10:36:50;;;;;;;6.47;2.28;;;24.40;49.80;;;;;;4993786;28;20938;-48
2022/06/12 10:39:23;;;;;;;4.57;2.38;;;24.50;49.00;;;;;;5017743;28;20042;-52
2022/06/12 10:41:52;;;;;;;8.35;2.55;;;24.70;48.70;;;;;;5013401;28;20754;-47
2022/06/12 10:44:54;;;;;;;7.88;2.00;;;24.80;47.70;;;;;;5021454;28;20618;-52
2022/06/12 10:47:26;;;;;;;6.82;1.95;;;25.00;48.70;;;;;;5016244;28;20045;-47
2022/06/12 10:50:14;;;;;;;5.07;1.83;;;24.90;48.20;;;;;;5029589;28;20100;-49
2022/06/12 10:53:00;;;;;;;3.67;1.80;;;25.00;47.60;;;;;;5010031;28;20053;-52
2022/06/12 10:55:41;;;;;;;5.90;2.08;;;25.00;47.60;;;;;;5026575;28;20464;-49
2022/06/12 10:58:17;;;;;;;7.80;2.40;;;25.00;46.80;;;;;;5016883;28;20587;-49
2022/06/12 11:00:47;;;;;;;5.45;2.33;;;25.00;46.30;;;;;;5024448;28;20045;-48
2022/06/12 11:03:35;;;;;;;7.07;2.45;;;25.00;46.40;;;;;;5018171;28;20045;-45
2022/06/12 11:06:07;;;;;;;5.43;2.40;;;25.10;45.60;;;;;;5020083;28;20045;-48
2022/06/12 11:08:54;;;;;;;4.55;2.05;;;25.10;46.00;;;;;;5013671;28;20104;-49
2022/06/12 11:11:45;;;;;;;5.07;2.42;;;25.10;45.80;;;;;;5024589;28;20037;-46
2022/06/12 11:14:19;;;;;;;5.67;2.73;;;25.10;46.20;;;;;;5023885;28;20091;-47
2022/06/12 11:17:00;;;;;;;6.20;2.38;;;25.20;46.20;;;;;;5019523;28;20041;-49
2022/06/12 11:19:26;;;;;;;3.80;1.50;;;25.20;46.50;;;;;;5036527;28;20509;-52
2022/06/12 11:22:20;;;;;;;5.38;1.70;;;25.30;45.70;;;;;;5023469;28;20049;-52
2022/06/12 11:24:57;;;;;;;7.10;2.10;;;25.40;44.40;;;;;;5030631;28;20048;-50
2022/06/12 11:27:51;;;;;;;5.28;2.08;;;25.40;44.40;;;;;;5015482;28;20081;-48
2022/06/12 11:30:42;;;;;;;8.88;2.67;;;25.50;44.60;;;;;;5028792;28;20077;-48
2022/06/12 11:33:37;;;;;;;4.55;3.58;;;25.50;44.60;;;;;;5022979;28;20729;-49
2022/06/12 11:37:06;;;;;;;3.92;1.80;;;25.70;43.90;;;;;;5025888;28;20602;-48
2022/06/12 11:40:02;;;;;;;5.35;1.98;;;25.80;43.90;;;;;;4956165;28;20057;-47
2022/06/12 11:42:57;;;;;;;3.97;1.50;;;25.90;43.50;;;;;;5022125;28;20060;-49
2022/06/12 11:46:02;;;;;;;6.18;2.15;;;25.90;43.70;;;;;;5027530;28;20051;-47
2022/06/12 11:48:48;;;;;;;7.05;2.13;;;26.00;44.40;;;;;;5021617;28;20052;-47
2022/06/12 11:51:27;;;;;;;5.90;1.95;;;26.20;44.90;;;;;;5023971;28;20710;-48
2022/06/12 11:54:04;;;;;;;7.18;2.25;;;26.10;43.80;;;;;;5023563;28;20390;-48
2022/06/12 11:56:36;;;;;;;5.43;1.80;;;26.20;44.70;;;;;;5018688;28;20037;-47
2022/06/12 11:59:06;;;;;;;5.18;2.40;;;26.10;44.50;;;;;;5022872;28;20038;-51
2022/06/12 12:01:59;;;;;;;4.22;1.83;;;26.10;44.60;;;;;;5022860;28;20067;-46
2022/06/12 12:05:22;;;;;;;6.35;4.00;;;26.10;44.20;;;;;;5028809;28;20106;-50
2022/06/12 12:08:19;;;;;;;5.30;1.88;;;26.10;43.20;;;;;;4936455;28;20405;-48
2022/06/12 12:11:01;;;;;;;5.28;1.83;;;26.10;43.20;;;;;;5014815;28;20048;-51
2022/06/12 12:13:37;;;;;;;5.53;1.93;;;26.20;42.80;;;;;;5015717;28;20041;-48
2022/06/12 12:16:11;;;;;;;21.60;2.60;;;26.20;42.60;;;;;;5021584;28;20296;-49
2022/06/12 12:18:49;;;;;;;3.75;1.35;;;26.30;42.60;;;;;;5017391;28;20450;-46
2022/06/12 12:21:46;;;;;;;5.43;1.85;;;26.30;42.60;;;;;;5024430;28;20041;-47
2022/06/12 12:24:17;;;;;;;3.72;1.88;;;26.40;42.20;;;;;;5013066;28;20045;-48
2022/06/12 12:26:45;;;;;;;3.33;1.33;;;26.50;42.00;;;;;;5021191;28;20130;-49
2022/06/12 12:29:16;;;;;;;4.75;1.70;;;26.60;42.70;;;;;;5027685;28;20523;-49
2022/06/12 12:31:46;;;;;;;4.20;1.55;;;26.70;42.70;;;;;;5023448;28;20053;-48
2022/06/12 12:34:15;;;;;;;4.47;1.85;;;26.90;42.70;;;;;;5033240;28;20045;-48
2022/06/12 12:42:36;;;;;;;4.95;1.60;;;27.20;41.80;;;;;;5019414;28;20034;-49
2022/06/12 12:45:24;;;;;;;3.63;1.50;;;27.40;39.90;;;;;;5017895;28;20053;-49
2022/06/12 12:48:02;;;;;;;6.43;1.95;;;27.50;39.70;;;;;;5016910;28;20045;-51
2022/06/12 12:50:40;;;;;;;4.63;1.98;;;27.60;40.50;;;;;;5024475;28;20053;-50
2022/06/12 12:53:08;;;;;;;6.57;2.25;;;27.70;39.80;;;;;;5021620;28;20037;-52
2022/06/12 12:56:07;;;;;;;4.50;1.48;;;27.80;39.70;;;;;;5029421;28;20042;-53
2022/06/12 12:58:41;;;;;;;4.38;2.20;;;27.90;39.20;;;;;;5031366;28;20512;-51
2022/06/12 13:01:19;;;;;;;5.82;1.73;;;27.90;39.80;;;;;;5021587;28;20088;-53
2022/06/12 13:03:54;;;;;;;4.18;1.83;;;28.00;39.10;;;;;;5009380;28;20041;-50
2022/06/12 13:06:52;;;;;;;1.95;1.45;;;28.00;39.50;;;;;;5012619;28;20029;-52
2022/06/12 13:09:22;;;;;;;2.92;1.33;;;28.10;39.10;;;;;;5016523;28;20049;-54
2022/06/12 13:12:26;;;;;;;6.75;1.85;;;28.20;40.20;;;;;;5007494;28;20034;-50
2022/06/12 13:15:27;;;;;;;4.53;1.77;;;28.30;41.20;;;;;;5008404;28;20089;-54
2022/06/12 13:18:09;;;;;;;6.90;2.13;;;28.50;39.30;;;;;;4995328;28;20054;-52
2022/06/12 13:21:24;;;;;;;5.20;2.00;;;28.60;39.10;;;;;;5024045;28;20038;-54
2022/06/12 13:24:11;;;;;;;6.35;2.42;;;28.60;37.90;;;;;;4994282;28;20628;-52
2022/06/12 13:26:41;;;;;;;3.92;1.70;;;28.60;38.40;;;;;;5025605;28;20041;-53
2022/06/12 13:29:16;;;;;;;4.10;1.55;;;28.60;38.30;;;;;;5014897;28;20053;-54
2022/06/12 13:31:54;;;;;;;;;;;28.60;37.50;;;;;;5020352;28;20077;-53
2022/06/12 13:34:21;;;;;;;5.30;1.30;;;28.60;38.40;;;;;;5026943;28;19928;-54
2022/06/12 13:36:48;;;;;;;5.43;1.48;;;28.50;37.80;;;;;;5018029;28;20072;-52
2022/06/12 13:39:35;;;;;;;5.25;2.17;;;28.40;38.40;;;;;;5027214;28;20037;-54
2022/06/12 13:42:06;;;;;;;7.97;1.52;;;28.30;37.40;;;;;;5012225;28;20686;-50
2022/06/12 13:44:36;;;;;;;5.20;1.80;;;28.20;37.50;;;;;;5010079;28;20036;-53
2022/06/12 13:47:34;;;;;;;5.68;1.63;;;28.30;38.20;;;;;;5005758;28;20042;-54
2022/06/12 13:50:24;;;;;;;2.60;1.45;;;28.70;39.20;;;;;;5026581;28;20519;-54